sensor_id;sensor_type;location;lat;lon;timestamp;temperature;humidity
74923;HTU21D;64715;44.760;37.678;2023-10-08T00:00:26;17.25;61.31
74923;HTU21D;64715;44.760;37.678;2023-10-08T00:01:45;17.23;61.31
74923;HTU21D;64715;44.760;37.678;2023-10-08T00:02:47;17.23;61.31
74923;HTU21D;64715;44.760;37.678;2023-10-08T00:03:48;17.21;61.35
74923;HTU21D;64715;44.760;37.678;2023-10-08T00:04:54;17.19;61.10
74923;HTU21D;64715;44.760;37.678;2023-10-08T00:05:55;17.20;61.31
74923;HTU21D;64715;44.760;37.678;2023-10-08T00:06:57;17.17;61.38
74923;HTU21D;64715;44.760;37.678;2023-10-08T00:07:59;17.17;61.39
74923;HTU21D;64715;44.760;37.678;2023-10-08T00:09:00;17.16;61.31
74923;HTU21D;64715;44.760;37.678;2023-10-08T00:10:03;17.16;61.38
74923;HTU21D;64715;44.760;37.678;2023-10-08T00:11:04;17.15;61.35
74923;HTU21D;64715;44.760;37.678;2023-10-08T00:12:10;17.15;61.18
74923;HTU21D;64715;44.760;37.678;2023-10-08T00:13:15;17.14;61.35
74923;HTU21D;64715;44.760;37.678;2023-10-08T00:14:18;17.15;61.34
74923;HTU21D;64715;44.760;37.678;2023-10-08T00:15:22;17.13;61.25
74923;HTU21D;64715;44.760;37.678;2023-10-08T00:16:26;17.14;61.33
74923;HTU21D;64715;44.760;37.678;2023-10-08T00:17:29;17.13;61.34
74923;HTU21D;64715;44.760;37.678;2023-10-08T00:18:32;17.13;61.47
74923;HTU21D;64715;44.760;37.678;2023-10-08T00:19:33;17.11;61.41
74923;HTU21D;64715;44.760;37.678;2023-10-08T00:20:37;17.11;61.29
74923;HTU21D;64715;44.760;37.678;2023-10-08T00:21:59;17.10;61.28
74923;HTU21D;64715;44.760;37.678;2023-10-08T00:23:05;17.10;61.30
74923;HTU21D;64715;44.760;37.678;2023-10-08T00:24:08;17.07;61.32
74923;HTU21D;64715;44.760;37.678;2023-10-08T00:25:09;17.07;61.26
74923;HTU21D;64715;44.760;37.678;2023-10-08T00:26:12;17.04;61.35
74923;HTU21D;64715;44.760;37.678;2023-10-08T00:27:14;17.05;61.34
74923;HTU21D;64715;44.760;37.678;2023-10-08T00:28:15;17.04;61.25
74923;HTU21D;64715;44.760;37.678;2023-10-08T00:29:17;17.03;61.31
74923;HTU21D;64715;44.760;37.678;2023-10-08T00:30:22;17.02;61.29
74923;HTU21D;64715;44.760;37.678;2023-10-08T00:31:23;17.01;61.31
74923;HTU21D;64715;44.760;37.678;2023-10-08T00:32:38;16.98;61.18
74923;HTU21D;64715;44.760;37.678;2023-10-08T00:33:40;16.99;61.39
74923;HTU21D;64715;44.760;37.678;2023-10-08T00:34:43;16.98;61.43
74923;HTU21D;64715;44.760;37.678;2023-10-08T00:35:44;16.96;61.36
74923;HTU21D;64715;44.760;37.678;2023-10-08T00:36:47;16.96;61.38
74923;HTU21D;64715;44.760;37.678;2023-10-08T00:37:48;16.96;61.40
74923;HTU21D;64715;44.760;37.678;2023-10-08T00:38:50;16.95;61.25
74923;HTU21D;64715;44.760;37.678;2023-10-08T00:40:00;16.93;61.28
74923;HTU21D;64715;44.760;37.678;2023-10-08T00:41:05;16.93;61.46
74923;HTU21D;64715;44.760;37.678;2023-10-08T00:42:07;16.91;61.46
74923;HTU21D;64715;44.760;37.678;2023-10-08T00:43:09;16.91;61.57
74923;HTU21D;64715;44.760;37.678;2023-10-08T00:44:12;16.92;61.40
74923;HTU21D;64715;44.760;37.678;2023-10-08T00:45:16;16.92;61.47
74923;HTU21D;64715;44.760;37.678;2023-10-08T00:46:19;16.92;61.58
74923;HTU21D;64715;44.760;37.678;2023-10-08T00:47:25;16.91;61.54
74923;HTU21D;64715;44.760;37.678;2023-10-08T00:48:29;16.91;61.54
74923;HTU21D;64715;44.760;37.678;2023-10-08T00:49:35;16.90;61.53
74923;HTU21D;64715;44.760;37.678;2023-10-08T00:50:59;16.91;61.57
74923;HTU21D;64715;44.760;37.678;2023-10-08T00:52:18;16.89;61.55
74923;HTU21D;64715;44.760;37.678;2023-10-08T00:53:27;16.89;61.54
74923;HTU21D;64715;44.760;37.678;2023-10-08T00:54:28;16.88;61.60
74923;HTU21D;64715;44.760;37.678;2023-10-08T00:55:33;16.88;61.70
74923;HTU21D;64715;44.760;37.678;2023-10-08T00:56:36;16.89;61.65
74923;HTU21D;64715;44.760;37.678;2023-10-08T00:57:56;16.90;61.70
74923;HTU21D;64715;44.760;37.678;2023-10-08T00:58:58;16.89;61.60
74923;HTU21D;64715;44.760;37.678;2023-10-08T01:00:00;16.90;61.68
74923;HTU21D;64715;44.760;37.678;2023-10-08T01:01:02;16.89;61.61
74923;HTU21D;64715;44.760;37.678;2023-10-08T01:02:04;16.90;61.63
74923;HTU21D;64715;44.760;37.678;2023-10-08T01:03:15;16.89;61.63
74923;HTU21D;64715;44.760;37.678;2023-10-08T01:04:19;16.90;61.73
74923;HTU21D;64715;44.760;37.678;2023-10-08T01:05:28;16.91;61.63
74923;HTU21D;64715;44.760;37.678;2023-10-08T01:06:43;16.89;61.54
74923;HTU21D;64715;44.760;37.678;2023-10-08T01:07:46;16.89;61.60
74923;HTU21D;64715;44.760;37.678;2023-10-08T01:08:49;16.88;61.59
74923;HTU21D;64715;44.760;37.678;2023-10-08T01:09:55;16.88;61.60
74923;HTU21D;64715;44.760;37.678;2023-10-08T01:11:16;16.87;61.74
74923;HTU21D;64715;44.760;37.678;2023-10-08T01:12:22;16.87;61.89
74923;HTU21D;64715;44.760;37.678;2023-10-08T01:13:30;16.87;61.79
74923;HTU21D;64715;44.760;37.678;2023-10-08T01:14:36;16.86;61.83
74923;HTU21D;64715;44.760;37.678;2023-10-08T01:15:38;16.88;61.77
74923;HTU21D;64715;44.760;37.678;2023-10-08T01:16:38;16.88;61.79
74923;HTU21D;64715;44.760;37.678;2023-10-08T01:17:42;16.88;61.78
74923;HTU21D;64715;44.760;37.678;2023-10-08T01:19:18;16.86;61.80
74923;HTU21D;64715;44.760;37.678;2023-10-08T01:20:20;16.87;61.78
74923;HTU21D;64715;44.760;37.678;2023-10-08T01:21:34;16.86;61.68
74923;HTU21D;64715;44.760;37.678;2023-10-08T01:22:35;16.86;61.73
74923;HTU21D;64715;44.760;37.678;2023-10-08T01:23:39;16.86;61.79
74923;HTU21D;64715;44.760;37.678;2023-10-08T01:24:40;16.88;61.98
74923;HTU21D;64715;44.760;37.678;2023-10-08T01:25:43;16.87;61.92
74923;HTU21D;64715;44.760;37.678;2023-10-08T01:26:51;16.87;61.90
74923;HTU21D;64715;44.760;37.678;2023-10-08T01:27:56;16.89;61.98
74923;HTU21D;64715;44.760;37.678;2023-10-08T01:28:57;16.89;61.86
74923;HTU21D;64715;44.760;37.678;2023-10-08T01:30:03;16.89;61.83
74923;HTU21D;64715;44.760;37.678;2023-10-08T01:31:18;16.91;61.88
74923;HTU21D;64715;44.760;37.678;2023-10-08T01:32:20;16.93;61.89
74923;HTU21D;64715;44.760;37.678;2023-10-08T01:33:22;16.93;61.99
74923;HTU21D;64715;44.760;37.678;2023-10-08T01:34:24;16.94;62.04
74923;HTU21D;64715;44.760;37.678;2023-10-08T01:35:31;16.96;61.95
74923;HTU21D;64715;44.760;37.678;2023-10-08T01:36:32;16.99;61.99
74923;HTU21D;64715;44.760;37.678;2023-10-08T01:37:35;16.99;61.97
74923;HTU21D;64715;44.760;37.678;2023-10-08T01:38:36;16.99;61.90
74923;HTU21D;64715;44.760;37.678;2023-10-08T01:39:37;17.00;61.92
74923;HTU21D;64715;44.760;37.678;2023-10-08T01:40:41;17.00;61.88
74923;HTU21D;64715;44.760;37.678;2023-10-08T01:41:45;16.99;61.95
74923;HTU21D;64715;44.760;37.678;2023-10-08T01:42:52;16.99;61.83
74923;HTU21D;64715;44.760;37.678;2023-10-08T01:43:53;16.99;62.00
74923;HTU21D;64715;44.760;37.678;2023-10-08T01:44:54;16.98;62.04
74923;HTU21D;64715;44.760;37.678;2023-10-08T01:45:56;16.99;62.01
74923;HTU21D;64715;44.760;37.678;2023-10-08T01:46:57;16.99;62.00
74923;HTU21D;64715;44.760;37.678;2023-10-08T01:47:59;16.98;62.02
74923;HTU21D;64715;44.760;37.678;2023-10-08T01:49:00;16.95;61.92
74923;HTU21D;64715;44.760;37.678;2023-10-08T01:50:06;16.94;62.08
74923;HTU21D;64715;44.760;37.678;2023-10-08T01:51:12;16.92;61.99
74923;HTU21D;64715;44.760;37.678;2023-10-08T01:52:25;16.90;62.04
74923;HTU21D;64715;44.760;37.678;2023-10-08T01:53:26;16.88;61.97
74923;HTU21D;64715;44.760;37.678;2023-10-08T01:54:27;16.88;62.13
74923;HTU21D;64715;44.760;37.678;2023-10-08T01:55:28;16.88;62.19
74923;HTU21D;64715;44.760;37.678;2023-10-08T01:56:34;16.86;62.19
74923;HTU21D;64715;44.760;37.678;2023-10-08T01:57:37;16.85;62.08
74923;HTU21D;64715;44.760;37.678;2023-10-08T01:58:37;16.84;62.22
74923;HTU21D;64715;44.760;37.678;2023-10-08T01:59:39;16.84;62.16
74923;HTU21D;64715;44.760;37.678;2023-10-08T02:00:44;16.81;62.24
74923;HTU21D;64715;44.760;37.678;2023-10-08T02:01:47;16.80;62.14
74923;HTU21D;64715;44.760;37.678;2023-10-08T02:02:52;16.78;62.21
74923;HTU21D;64715;44.760;37.678;2023-10-08T02:03:54;16.77;62.37
74923;HTU21D;64715;44.760;37.678;2023-10-08T02:04:55;16.75;62.33
74923;HTU21D;64715;44.760;37.678;2023-10-08T02:05:56;16.75;62.33
74923;HTU21D;64715;44.760;37.678;2023-10-08T02:07:01;16.73;62.37
74923;HTU21D;64715;44.760;37.678;2023-10-08T02:08:02;16.73;62.39
74923;HTU21D;64715;44.760;37.678;2023-10-08T02:09:04;16.72;62.21
74923;HTU21D;64715;44.760;37.678;2023-10-08T02:10:08;16.71;62.39
74923;HTU21D;64715;44.760;37.678;2023-10-08T02:11:11;16.71;62.27
74923;HTU21D;64715;44.760;37.678;2023-10-08T02:12:12;16.71;62.41
74923;HTU21D;64715;44.760;37.678;2023-10-08T02:13:15;16.67;62.31
74923;HTU21D;64715;44.760;37.678;2023-10-08T02:14:17;16.69;62.25
74923;HTU21D;64715;44.760;37.678;2023-10-08T02:15:18;16.69;62.34
74923;HTU21D;64715;44.760;37.678;2023-10-08T02:16:19;16.69;62.41
74923;HTU21D;64715;44.760;37.678;2023-10-08T02:17:23;16.67;62.47
74923;HTU21D;64715;44.760;37.678;2023-10-08T02:18:23;16.69;62.42
74923;HTU21D;64715;44.760;37.678;2023-10-08T02:19:26;16.66;62.45
74923;HTU21D;64715;44.760;37.678;2023-10-08T02:20:30;16.65;62.54
74923;HTU21D;64715;44.760;37.678;2023-10-08T02:21:31;16.64;62.64
74923;HTU21D;64715;44.760;37.678;2023-10-08T02:22:34;16.63;62.63
74923;HTU21D;64715;44.760;37.678;2023-10-08T02:23:36;16.63;62.58
74923;HTU21D;64715;44.760;37.678;2023-10-08T02:24:38;16.62;62.47
74923;HTU21D;64715;44.760;37.678;2023-10-08T02:25:41;16.64;62.44
74923;HTU21D;64715;44.760;37.678;2023-10-08T02:26:42;16.62;62.57
74923;HTU21D;64715;44.760;37.678;2023-10-08T02:27:44;16.61;62.45
74923;HTU21D;64715;44.760;37.678;2023-10-08T02:28:45;16.61;62.42
74923;HTU21D;64715;44.760;37.678;2023-10-08T02:29:46;16.61;62.51
74923;HTU21D;64715;44.760;37.678;2023-10-08T02:30:47;16.62;62.58
74923;HTU21D;64715;44.760;37.678;2023-10-08T02:31:48;16.62;62.52
74923;HTU21D;64715;44.760;37.678;2023-10-08T02:32:49;16.61;62.49
74923;HTU21D;64715;44.760;37.678;2023-10-08T02:33:50;16.61;62.55
74923;HTU21D;64715;44.760;37.678;2023-10-08T02:34:52;16.59;62.53
74923;HTU21D;64715;44.760;37.678;2023-10-08T02:35:53;16.60;62.59
74923;HTU21D;64715;44.760;37.678;2023-10-08T02:36:54;16.60;62.57
74923;HTU21D;64715;44.760;37.678;2023-10-08T02:37:57;16.62;62.62
74923;HTU21D;64715;44.760;37.678;2023-10-08T02:38:59;16.61;62.50
74923;HTU21D;64715;44.760;37.678;2023-10-08T02:40:09;16.61;62.49
74923;HTU21D;64715;44.760;37.678;2023-10-08T02:41:20;16.60;62.53
74923;HTU21D;64715;44.760;37.678;2023-10-08T02:42:21;16.60;62.70
74923;HTU21D;64715;44.760;37.678;2023-10-08T02:43:24;16.60;62.52
74923;HTU21D;64715;44.760;37.678;2023-10-08T02:44:27;16.59;62.65
74923;HTU21D;64715;44.760;37.678;2023-10-08T02:45:28;16.58;62.59
74923;HTU21D;64715;44.760;37.678;2023-10-08T02:46:29;16.59;62.50
74923;HTU21D;64715;44.760;37.678;2023-10-08T02:47:33;16.57;62.70
74923;HTU21D;64715;44.760;37.678;2023-10-08T02:48:34;16.57;62.57
74923;HTU21D;64715;44.760;37.678;2023-10-08T02:49:35;16.55;62.47
74923;HTU21D;64715;44.760;37.678;2023-10-08T02:50:41;16.56;62.50
74923;HTU21D;64715;44.760;37.678;2023-10-08T02:51:43;16.55;62.57
74923;HTU21D;64715;44.760;37.678;2023-10-08T02:52:45;16.54;62.43
74923;HTU21D;64715;44.760;37.678;2023-10-08T02:53:46;16.55;62.60
74923;HTU21D;64715;44.760;37.678;2023-10-08T02:54:47;16.51;62.58
74923;HTU21D;64715;44.760;37.678;2023-10-08T02:55:48;16.52;62.64
74923;HTU21D;64715;44.760;37.678;2023-10-08T02:56:51;16.51;62.61
74923;HTU21D;64715;44.760;37.678;2023-10-08T02:57:56;16.51;62.55
74923;HTU21D;64715;44.760;37.678;2023-10-08T02:58:57;16.50;62.54
74923;HTU21D;64715;44.760;37.678;2023-10-08T02:59:58;16.50;62.62
74923;HTU21D;64715;44.760;37.678;2023-10-08T03:00:59;16.50;62.64
74923;HTU21D;64715;44.760;37.678;2023-10-08T03:02:01;16.49;62.62
74923;HTU21D;64715;44.760;37.678;2023-10-08T03:03:02;16.50;62.74
74923;HTU21D;64715;44.760;37.678;2023-10-08T03:04:10;16.49;62.68
74923;HTU21D;64715;44.760;37.678;2023-10-08T03:05:29;16.46;62.50
74923;HTU21D;64715;44.760;37.678;2023-10-08T03:06:38;16.47;62.71
74923;HTU21D;64715;44.760;37.678;2023-10-08T03:07:39;16.47;62.53
74923;HTU21D;64715;44.760;37.678;2023-10-08T03:08:40;16.47;62.55
74923;HTU21D;64715;44.760;37.678;2023-10-08T03:09:42;16.47;62.66
74923;HTU21D;64715;44.760;37.678;2023-10-08T03:10:43;16.47;62.60
74923;HTU21D;64715;44.760;37.678;2023-10-08T03:11:44;16.47;62.60
74923;HTU21D;64715;44.760;37.678;2023-10-08T03:12:49;16.48;62.59
74923;HTU21D;64715;44.760;37.678;2023-10-08T03:13:51;16.48;62.66
74923;HTU21D;64715;44.760;37.678;2023-10-08T03:14:54;16.49;62.76
74923;HTU21D;64715;44.760;37.678;2023-10-08T03:16:13;16.50;62.60
74923;HTU21D;64715;44.760;37.678;2023-10-08T03:17:14;16.50;62.53
74923;HTU21D;64715;44.760;37.678;2023-10-08T03:18:20;16.50;62.70
74923;HTU21D;64715;44.760;37.678;2023-10-08T03:19:22;16.49;62.66
74923;HTU21D;64715;44.760;37.678;2023-10-08T03:20:23;16.50;62.70
74923;HTU21D;64715;44.760;37.678;2023-10-08T03:21:38;16.51;62.66
74923;HTU21D;64715;44.760;37.678;2023-10-08T03:22:39;16.51;62.58
74923;HTU21D;64715;44.760;37.678;2023-10-08T03:23:49;16.52;62.73
74923;HTU21D;64715;44.760;37.678;2023-10-08T03:24:51;16.55;62.70
74923;HTU21D;64715;44.760;37.678;2023-10-08T03:25:56;16.56;62.68
74923;HTU21D;64715;44.760;37.678;2023-10-08T03:27:16;16.56;62.68
74923;HTU21D;64715;44.760;37.678;2023-10-08T03:28:21;16.57;62.76
74923;HTU21D;64715;44.760;37.678;2023-10-08T03:29:26;16.57;62.73
74923;HTU21D;64715;44.760;37.678;2023-10-08T03:30:31;16.58;62.62
74923;HTU21D;64715;44.760;37.678;2023-10-08T03:31:38;16.59;62.68
74923;HTU21D;64715;44.760;37.678;2023-10-08T03:33:04;16.61;62.68
74923;HTU21D;64715;44.760;37.678;2023-10-08T03:34:11;16.60;62.73
74923;HTU21D;64715;44.760;37.678;2023-10-08T03:35:16;16.62;62.71
74923;HTU21D;64715;44.760;37.678;2023-10-08T03:36:28;16.62;62.64
74923;HTU21D;64715;44.760;37.678;2023-10-08T03:37:34;16.64;62.75
74923;HTU21D;64715;44.760;37.678;2023-10-08T03:38:42;16.65;62.65
74923;HTU21D;64715;44.760;37.678;2023-10-08T03:39:47;16.65;62.66
74923;HTU21D;64715;44.760;37.678;2023-10-08T03:40:51;16.65;62.82
74923;HTU21D;64715;44.760;37.678;2023-10-08T03:41:57;16.67;62.65
74923;HTU21D;64715;44.760;37.678;2023-10-08T03:43:09;16.67;62.61
74923;HTU21D;64715;44.760;37.678;2023-10-08T03:44:20;16.70;62.55
74923;HTU21D;64715;44.760;37.678;2023-10-08T03:45:21;16.70;62.66
74923;HTU21D;64715;44.760;37.678;2023-10-08T03:46:41;16.69;62.63
74923;HTU21D;64715;44.760;37.678;2023-10-08T03:47:47;16.69;62.69
74923;HTU21D;64715;44.760;37.678;2023-10-08T03:48:59;16.70;62.70
74923;HTU21D;64715;44.760;37.678;2023-10-08T03:50:06;16.72;62.52
74923;HTU21D;64715;44.760;37.678;2023-10-08T03:51:08;16.72;62.73
74923;HTU21D;64715;44.760;37.678;2023-10-08T03:52:12;16.73;62.75
74923;HTU21D;64715;44.760;37.678;2023-10-08T03:53:16;16.74;62.75
74923;HTU21D;64715;44.760;37.678;2023-10-08T03:54:17;16.75;62.73
74923;HTU21D;64715;44.760;37.678;2023-10-08T03:55:19;16.77;62.78
74923;HTU21D;64715;44.760;37.678;2023-10-08T03:56:20;16.80;62.80
74923;HTU21D;64715;44.760;37.678;2023-10-08T03:57:21;16.80;62.82
74923;HTU21D;64715;44.760;37.678;2023-10-08T03:58:41;16.85;62.80
74923;HTU21D;64715;44.760;37.678;2023-10-08T03:59:47;16.86;62.85
74923;HTU21D;64715;44.760;37.678;2023-10-08T04:00:49;16.88;62.70
74923;HTU21D;64715;44.760;37.678;2023-10-08T04:01:50;16.91;62.86
74923;HTU21D;64715;44.760;37.678;2023-10-08T04:02:55;16.92;62.77
74923;HTU21D;64715;44.760;37.678;2023-10-08T04:04:01;16.98;62.95
74923;HTU21D;64715;44.760;37.678;2023-10-08T04:05:02;17.02;62.85
74923;HTU21D;64715;44.760;37.678;2023-10-08T04:06:22;17.05;62.84
74923;HTU21D;64715;44.760;37.678;2023-10-08T04:07:36;17.09;62.92
74923;HTU21D;64715;44.760;37.678;2023-10-08T04:08:46;17.13;62.77
74923;HTU21D;64715;44.760;37.678;2023-10-08T04:10:00;17.16;62.85
74923;HTU21D;64715;44.760;37.678;2023-10-08T04:11:10;17.20;62.78
74923;HTU21D;64715;44.760;37.678;2023-10-08T04:12:44;17.23;62.68
74923;HTU21D;64715;44.760;37.678;2023-10-08T04:13:46;17.25;62.58
74923;HTU21D;64715;44.760;37.678;2023-10-08T04:14:49;17.30;62.79
74923;HTU21D;64715;44.760;37.678;2023-10-08T04:15:50;17.32;62.62
74923;HTU21D;64715;44.760;37.678;2023-10-08T04:16:52;17.36;62.66
74923;HTU21D;64715;44.760;37.678;2023-10-08T04:17:53;17.40;62.85
74923;HTU21D;64715;44.760;37.678;2023-10-08T04:18:55;17.44;62.70
74923;HTU21D;64715;44.760;37.678;2023-10-08T04:20:07;17.50;62.72
74923;HTU21D;64715;44.760;37.678;2023-10-08T04:21:28;17.55;62.69
74923;HTU21D;64715;44.760;37.678;2023-10-08T04:22:29;17.60;62.64
74923;HTU21D;64715;44.760;37.678;2023-10-08T04:23:30;17.65;62.66
74923;HTU21D;64715;44.760;37.678;2023-10-08T04:24:31;17.68;62.57
74923;HTU21D;64715;44.760;37.678;2023-10-08T04:25:35;17.74;62.63
74923;HTU21D;64715;44.760;37.678;2023-10-08T04:26:36;17.78;62.44
74923;HTU21D;64715;44.760;37.678;2023-10-08T04:27:41;17.81;62.58
74923;HTU21D;64715;44.760;37.678;2023-10-08T04:28:42;17.85;62.51
74923;HTU21D;64715;44.760;37.678;2023-10-08T04:29:43;17.90;62.51
74923;HTU21D;64715;44.760;37.678;2023-10-08T04:30:50;17.92;62.52
74923;HTU21D;64715;44.760;37.678;2023-10-08T04:31:52;17.95;62.47
74923;HTU21D;64715;44.760;37.678;2023-10-08T04:33:08;17.96;62.46
74923;HTU21D;64715;44.760;37.678;2023-10-08T04:34:13;18.00;62.36
74923;HTU21D;64715;44.760;37.678;2023-10-08T04:35:17;18.02;62.35
74923;HTU21D;64715;44.760;37.678;2023-10-08T04:36:18;18.04;62.28
74923;HTU21D;64715;44.760;37.678;2023-10-08T04:37:20;18.04;62.33
74923;HTU21D;64715;44.760;37.678;2023-10-08T04:38:23;18.07;62.33
74923;HTU21D;64715;44.760;37.678;2023-10-08T04:39:27;18.09;62.34
74923;HTU21D;64715;44.760;37.678;2023-10-08T04:40:35;18.08;62.26
74923;HTU21D;64715;44.760;37.678;2023-10-08T04:41:48;18.12;62.17
74923;HTU21D;64715;44.760;37.678;2023-10-08T04:42:52;18.11;62.35
74923;HTU21D;64715;44.760;37.678;2023-10-08T04:43:55;18.12;62.22
74923;HTU21D;64715;44.760;37.678;2023-10-08T04:44:56;18.14;62.21
74923;HTU21D;64715;44.760;37.678;2023-10-08T04:46:00;18.15;62.28
74923;HTU21D;64715;44.760;37.678;2023-10-08T04:47:35;18.19;62.18
74923;HTU21D;64715;44.760;37.678;2023-10-08T04:48:40;18.19;62.36
74923;HTU21D;64715;44.760;37.678;2023-10-08T04:49:44;18.21;62.44
74923;HTU21D;64715;44.760;37.678;2023-10-08T04:50:47;18.23;62.34
74923;HTU21D;64715;44.760;37.678;2023-10-08T04:52:00;18.26;62.44
74923;HTU21D;64715;44.760;37.678;2023-10-08T04:53:01;18.26;62.25
74923;HTU21D;64715;44.760;37.678;2023-10-08T04:54:08;18.29;62.24
74923;HTU21D;64715;44.760;37.678;2023-10-08T04:55:09;18.32;62.25
74923;HTU21D;64715;44.760;37.678;2023-10-08T04:56:17;18.33;62.32
74923;HTU21D;64715;44.760;37.678;2023-10-08T04:57:19;18.35;62.23
74923;HTU21D;64715;44.760;37.678;2023-10-08T04:58:23;18.37;62.26
74923;HTU21D;64715;44.760;37.678;2023-10-08T04:59:34;18.39;62.20
74923;HTU21D;64715;44.760;37.678;2023-10-08T05:00:35;18.41;62.18
74923;HTU21D;64715;44.760;37.678;2023-10-08T05:01:45;18.43;62.20
74923;HTU21D;64715;44.760;37.678;2023-10-08T05:03:03;18.44;62.18
74923;HTU21D;64715;44.760;37.678;2023-10-08T05:04:11;18.46;62.21
74923;HTU21D;64715;44.760;37.678;2023-10-08T05:05:27;18.48;62.15
74923;HTU21D;64715;44.760;37.678;2023-10-08T05:06:39;18.49;62.14
74923;HTU21D;64715;44.760;37.678;2023-10-08T05:07:40;18.53;62.22
74923;HTU21D;64715;44.760;37.678;2023-10-08T05:08:47;18.52;62.05
74923;HTU21D;64715;44.760;37.678;2023-10-08T05:09:56;18.55;62.15
74923;HTU21D;64715;44.760;37.678;2023-10-08T05:11:06;18.56;62.15
74923;HTU21D;64715;44.760;37.678;2023-10-08T05:12:25;18.58;62.18
74923;HTU21D;64715;44.760;37.678;2023-10-08T05:13:38;18.62;62.17
74923;HTU21D;64715;44.760;37.678;2023-10-08T05:14:56;18.66;62.07
74923;HTU21D;64715;44.760;37.678;2023-10-08T05:16:17;18.67;62.15
74923;HTU21D;64715;44.760;37.678;2023-10-08T05:17:36;18.68;62.03
74923;HTU21D;64715;44.760;37.678;2023-10-08T05:19:00;18.70;61.95
74923;HTU21D;64715;44.760;37.678;2023-10-08T05:20:21;18.70;61.96
74923;HTU21D;64715;44.760;37.678;2023-10-08T05:21:31;18.74;62.28
74923;HTU21D;64715;44.760;37.678;2023-10-08T05:22:51;18.80;62.34
74923;HTU21D;64715;44.760;37.678;2023-10-08T05:24:18;18.87;62.18
74923;HTU21D;64715;44.760;37.678;2023-10-08T05:25:28;18.88;62.10
74923;HTU21D;64715;44.760;37.678;2023-10-08T05:26:41;18.89;62.04
74923;HTU21D;64715;44.760;37.678;2023-10-08T05:27:45;18.92;61.90
74923;HTU21D;64715;44.760;37.678;2023-10-08T05:28:49;18.92;62.00
74923;HTU21D;64715;44.760;37.678;2023-10-08T05:30:05;18.93;62.08
74923;HTU21D;64715;44.760;37.678;2023-10-08T05:31:17;18.97;61.98
74923;HTU21D;64715;44.760;37.678;2023-10-08T05:32:36;19.06;62.49
74923;HTU21D;64715;44.760;37.678;2023-10-08T05:34:00;19.23;62.71
74923;HTU21D;64715;44.760;37.678;2023-10-08T05:35:35;19.40;62.36
74923;HTU21D;64715;44.760;37.678;2023-10-08T05:36:49;19.53;62.31
74923;HTU21D;64715;44.760;37.678;2023-10-08T05:37:51;19.66;62.70
74923;HTU21D;64715;44.760;37.678;2023-10-08T05:39:03;19.89;62.82
74923;HTU21D;64715;44.760;37.678;2023-10-08T05:40:22;20.18;62.89
74923;HTU21D;64715;44.760;37.678;2023-10-08T05:41:43;20.51;62.71
74923;HTU21D;64715;44.760;37.678;2023-10-08T05:42:55;20.75;62.24
74923;HTU21D;64715;44.760;37.678;2023-10-08T05:44:01;20.92;61.93
74923;HTU21D;64715;44.760;37.678;2023-10-08T05:45:15;21.05;61.40
74923;HTU21D;64715;44.760;37.678;2023-10-08T05:46:30;21.11;61.19
74923;HTU21D;64715;44.760;37.678;2023-10-08T05:47:33;21.16;61.12
74923;HTU21D;64715;44.760;37.678;2023-10-08T05:48:34;21.18;60.74
74923;HTU21D;64715;44.760;37.678;2023-10-08T05:49:50;21.18;60.51
74923;HTU21D;64715;44.760;37.678;2023-10-08T05:51:09;21.15;60.43
74923;HTU21D;64715;44.760;37.678;2023-10-08T05:52:34;21.10;60.42
74923;HTU21D;64715;44.760;37.678;2023-10-08T05:53:53;21.10;60.53
74923;HTU21D;64715;44.760;37.678;2023-10-08T05:54:56;21.13;60.41
74923;HTU21D;64715;44.760;37.678;2023-10-08T05:56:30;21.14;60.58
74923;HTU21D;64715;44.760;37.678;2023-10-08T05:57:42;21.16;60.32
74923;HTU21D;64715;44.760;37.678;2023-10-08T05:58:47;21.15;60.18
74923;HTU21D;64715;44.760;37.678;2023-10-08T06:00:00;21.13;60.26
74923;HTU21D;64715;44.760;37.678;2023-10-08T06:01:02;21.10;60.37
74923;HTU21D;64715;44.760;37.678;2023-10-08T06:02:08;21.11;60.54
74923;HTU21D;64715;44.760;37.678;2023-10-08T06:03:28;21.19;60.97
74923;HTU21D;64715;44.760;37.678;2023-10-08T06:04:33;21.25;61.02
74923;HTU21D;64715;44.760;37.678;2023-10-08T06:05:53;21.36;61.02
74923;HTU21D;64715;44.760;37.678;2023-10-08T06:07:14;21.49;60.96
74923;HTU21D;64715;44.760;37.678;2023-10-08T06:08:33;21.61;61.09
74923;HTU21D;64715;44.760;37.678;2023-10-08T06:09:50;21.75;60.79
74923;HTU21D;64715;44.760;37.678;2023-10-08T06:11:16;21.90;60.67
74923;HTU21D;64715;44.760;37.678;2023-10-08T06:12:35;22.03;60.56
74923;HTU21D;64715;44.760;37.678;2023-10-08T06:13:50;22.14;60.57
74923;HTU21D;64715;44.760;37.678;2023-10-08T06:14:56;22.25;60.20
74923;HTU21D;64715;44.760;37.678;2023-10-08T06:16:09;22.37;60.25
74923;HTU21D;64715;44.760;37.678;2023-10-08T06:17:16;22.42;59.95
74923;HTU21D;64715;44.760;37.678;2023-10-08T06:18:55;22.49;59.75
74923;HTU21D;64715;44.760;37.678;2023-10-08T06:19:56;22.51;59.54
74923;HTU21D;64715;44.760;37.678;2023-10-08T06:21:02;22.54;59.41
74923;HTU21D;64715;44.760;37.678;2023-10-08T06:22:10;22.57;59.19
74923;HTU21D;64715;44.760;37.678;2023-10-08T06:23:15;22.60;59.05
74923;HTU21D;64715;44.760;37.678;2023-10-08T06:24:19;22.60;58.99
74923;HTU21D;64715;44.760;37.678;2023-10-08T06:25:21;22.60;58.77
74923;HTU21D;64715;44.760;37.678;2023-10-08T06:26:25;22.56;58.72
74923;HTU21D;64715;44.760;37.678;2023-10-08T06:27:26;22.57;58.69
74923;HTU21D;64715;44.760;37.678;2023-10-08T06:28:27;22.56;58.56
74923;HTU21D;64715;44.760;37.678;2023-10-08T06:29:28;22.55;58.51
74923;HTU21D;64715;44.760;37.678;2023-10-08T06:30:30;22.54;58.41
74923;HTU21D;64715;44.760;37.678;2023-10-08T06:31:38;22.55;58.43
74923;HTU21D;64715;44.760;37.678;2023-10-08T06:32:39;22.56;58.16
74923;HTU21D;64715;44.760;37.678;2023-10-08T06:33:41;22.57;58.19
74923;HTU21D;64715;44.760;37.678;2023-10-08T06:34:42;22.58;58.04
74923;HTU21D;64715;44.760;37.678;2023-10-08T06:35:44;22.58;58.05
74923;HTU21D;64715;44.760;37.678;2023-10-08T06:36:45;22.61;58.09
74923;HTU21D;64715;44.760;37.678;2023-10-08T06:37:47;22.63;57.89
74923;HTU21D;64715;44.760;37.678;2023-10-08T06:38:55;22.65;57.76
74923;HTU21D;64715;44.760;37.678;2023-10-08T06:39:56;22.66;57.55
74923;HTU21D;64715;44.760;37.678;2023-10-08T06:41:03;22.65;57.55
74923;HTU21D;64715;44.760;37.678;2023-10-08T06:42:11;22.63;57.46
74923;HTU21D;64715;44.760;37.678;2023-10-08T06:43:12;22.63;57.51
74923;HTU21D;64715;44.760;37.678;2023-10-08T06:44:15;22.62;57.38
74923;HTU21D;64715;44.760;37.678;2023-10-08T06:45:16;22.63;57.52
74923;HTU21D;64715;44.760;37.678;2023-10-08T06:46:19;22.67;57.48
74923;HTU21D;64715;44.760;37.678;2023-10-08T06:47:22;22.71;57.38